Time;durP1;ratioP1;P1;durP2;ratioP2;P2;SDS_P1;SDS_P2;PMS_P1;PMS_P2;Temp;Humidity;BMP_temperature;BMP_pressure;BME280_temperature;BME280_humidity;BME280_pressure;Samples;Min_cycle;Max_cycle;Signal;HPM_P1;HPM_P2
2021/08/23 00:01:20;;;;;;;10.15;9.25;;;;;;;21.46;52.72;94610.95;822026;71;30434;-77
2021/08/23 00:16:18;;;;;;;11.43;10.43;;;;;;;21.73;52.14;94639.84;826774;71;30424;-75
2021/08/23 00:31:21;;;;;;;9.28;8.48;;;;;;;22.89;49.59;94633.23;828069;71;32737;-76
2021/08/23 00:46:14;;;;;;;9.27;8.47;;;;;;;23.95;46.67;94633.47;824195;71;30285;-77
2021/08/23 01:01:36;;;;;;;10.40;9.50;;;;;;;24.50;44.69;94649.44;829101;71;31840;-75
2021/08/23 01:16:09;;;;;;;11.13;8.90;;;;;;;23.78;46.29;94642.10;825268;71;28783;-78
2021/08/23 01:17:13;;;;;;;10.20;9.30;;;;;;;23.68;46.30;94652.91;797777;73;26020;-76
2021/08/23 01:31:24;;;;;;;9.10;8.30;;;;;;;23.96;46.08;94646.30;828289;71;28731;-77
2021/08/23 01:32:29;;;;;;;9.20;8.43;;;;;;;23.97;46.03;94648.61;796656;72;25905;-77
2021/08/23 01:46:39;;;;;;;9.40;8.70;;;;;;;24.54;44.56;94644.86;827727;71;32180;-78
2021/08/23 02:01:34;;;;;;;9.17;8.37;;;;;;;24.40;45.17;94639.55;828598;71;28687;-77
2021/08/23 02:16:20;;;;;;;8.80;8.00;;;;;;;24.25;46.15;94635.25;829159;71;31272;-77
2021/08/23 02:31:20;;;;;;;8.70;8.00;;;;;;;24.33;46.28;94625.32;814063;71;31790;-77
2021/08/23 02:46:11;;;;;;;9.77;8.97;;;;;;;24.18;46.51;94621.77;826797;71;28663;-75
2021/08/23 03:16:10;;;;;;;9.70;8.80;;;;;;;23.91;46.94;94636.69;828843;71;28776;-76
2021/08/23 03:31:15;;;;;;;9.13;8.40;;;;;;;23.81;47.85;94640.04;833953;71;31758;-75
2021/08/23 03:46:19;;;;;;;9.10;8.40;;;;;;;24.05;46.93;94639.27;833927;71;31754;-78
2021/08/23 04:01:08;;;;;;;9.87;9.00;;;;;;;24.31;46.36;94650.41;828369;71;28715;-77
2021/08/23 04:16:16;;;;;;;10.10;9.23;;;;;;;25.08;44.06;94645.14;825481;71;28715;-77
2021/08/23 04:31:12;;;;;;;10.30;9.40;;;;;;;25.35;43.76;94652.40;828855;71;28674;-75
2021/08/23 04:46:17;;;;;;;83.53;74.37;;;;;;;25.96;45.99;94656.02;828062;71;32247;-75
2021/08/23 05:01:30;;;;;;;15.30;13.70;;;;;;;26.25;44.37;94652.00;828218;71;31728;-76
2021/08/23 05:16:24;;;;;;;11.20;10.20;;;;;;;26.33;43.64;94644.11;829272;71;31992;-74
2021/08/23 05:17:28;;;;;;;11.77;10.67;;;;;;;26.31;43.86;94647.77;809465;72;26406;-78
2021/08/23 05:46:53;;;;;;;11.80;10.70;;;;;;;26.78;42.07;94655.81;824074;71;33379;-77
2021/08/23 06:01:14;;;;;;;12.40;11.00;;;;;;;27.00;41.71;94655.78;828454;71;29812;-74
2021/08/23 06:16:11;;;;;;;11.30;10.30;;;;;;;26.27;42.13;94657.77;818825;71;29881;-76
2021/08/23 06:31:11;;;;;;;13.23;11.90;;;;;;;26.14;43.05;94650.66;834050;71;29763;-77
2021/08/23 06:46:22;;;;;;;10.63;9.73;;;;;;;25.76;43.37;94648.09;828549;71;29726;-77
2021/08/23 07:01:20;;;;;;;11.17;10.10;;;;;;;26.19;43.34;94654.88;818066;71;29776;-75
2021/08/23 07:16:25;;;;;;;12.63;11.40;;;;;;;26.26;43.25;94648.17;827276;71;33814;-74
2021/08/23 07:31:15;;;;;;;13.17;10.70;;;;;;;26.89;41.87;94630.23;828469;71;30164;-75
2021/08/23 07:46:14;;;;;;;10.90;9.70;;;;;;;26.94;41.60;94623.84;828558;71;30404;-75
2021/08/23 08:01:19;;;;;;;11.20;10.20;;;;;;;27.88;39.50;94612.64;827476;71;32876;-76
2021/08/23 08:16:16;;;;;;;9.20;8.40;;;;;;;;;;827756;71;32729;-78
2021/08/23 08:31:44;;;;;;;11.73;10.50;;;;;;;29.02;37.50;94608.75;824898;71;31887;-82
2021/08/23 08:46:39;;;;;;;11.60;10.63;;;;;;;29.48;37.14;94596.03;828573;71;29443;-83
2021/08/23 09:16:09;;;;;;;9.87;9.17;;;;;;;29.55;35.63;94560.00;829551;71;29653;-82
2021/08/23 09:31:19;;;;;;;9.23;8.53;;;;;;;30.11;34.58;94566.30;820512;70;32970;-83
2021/08/23 09:46:18;;;;;;;9.10;8.30;;;;;;;30.29;32.83;94551.11;834307;71;30714;-79
2021/08/23 10:01:13;;;;;;;9.00;8.20;;;;;;;29.78;32.83;94526.06;828415;71;30054;-78
2021/08/23 10:16:19;;;;;;;9.00;8.30;;;;;;;29.98;33.32;94510.64;826401;70;32706;-81
2021/08/23 10:31:26;;;;;;;8.63;7.90;;;;;;;30.63;30.74;94510.86;826031;70;29003;-77
2021/08/23 10:46:38;;;;;;;8.80;8.10;;;;;;;31.08;30.13;94479.17;834460;71;28284;-80
2021/08/23 11:01:24;;;;;;;8.63;8.03;;;;;;;30.33;29.87;94457.84;828995;71;30974;-79
2021/08/23 11:16:38;;;;;;;8.30;7.70;;;;;;;30.46;29.26;94439.62;827999;71;31686;-81
2021/08/23 11:31:26;;;;;;;8.23;7.63;;;;;;;30.59;29.10;94426.20;796604;73;32809;-81
2021/08/23 11:46:32;;;;;;;7.93;7.33;;;;;;;30.69;28.33;94396.75;827897;71;32238;-83
2021/08/23 12:01:16;;;;;;;8.07;7.47;;;;;;;30.31;28.50;94402.00;829652;71;31256;-77
2021/08/23 12:16:55;;;;;;;7.80;7.20;;;;;;;30.09;28.20;94377.83;835105;71;32186;-82
2021/08/23 12:31:31;;;;;;;7.70;7.20;;;;;;;30.01;28.02;94377.22;829383;71;32992;-78
2021/08/23 12:46:28;;;;;;;8.47;7.77;;;;;;;29.93;27.89;94371.77;834235;71;29763;-77
2021/08/23 13:01:30;;;;;;;7.60;6.90;;;;;;;30.39;26.52;94359.27;827272;71;31825;-79
2021/08/23 13:16:25;;;;;;;6.63;6.20;;;;;;;30.29;26.64;94355.59;827286;71;31738;-81
2021/08/23 13:31:22;;;;;;;7.50;6.80;;;;;;;30.16;26.26;94346.56;828017;71;31774;-81
2021/08/23 13:46:12;;;;;;;7.97;6.33;;;;;;;30.17;25.97;94329.13;828120;71;28998;-79
2021/08/23 14:01:10;;;;;;;7.37;6.87;;;;;;;29.91;26.21;94324.83;828972;71;28709;-82
2021/08/23 14:02:16;;;;;;;7.23;6.73;;;;;;;29.84;26.33;94312.03;808729;73;25934;-86
2021/08/23 14:16:27;;;;;;;7.33;6.63;;;;;;;29.69;26.71;94311.52;834312;71;29024;-81
2021/08/23 14:31:21;;;;;;;7.40;6.70;;;;;;;29.48;27.07;94291.81;829128;71;28707;-80
2021/08/23 14:46:40;;;;;;;7.70;7.20;;;;;;;29.58;27.01;94306.89;827363;71;31732;-78
2021/08/23 15:16:16;;;;;;;7.07;6.50;;;;;;;29.32;27.76;94312.76;834103;71;32127;-76
2021/08/23 15:31:14;;;;;;;6.90;6.40;;;;;;;29.14;27.72;94293.38;827585;71;31701;-79
2021/08/23 15:46:16;;;;;;;6.67;6.17;;;;;;;28.95;28.17;94301.56;826200;71;31711;-77
2021/08/23 16:01:17;;;;;;;7.40;6.87;;;;;;;28.62;28.58;94301.91;823192;71;31847;-79
2021/08/23 16:16:17;;;;;;;7.00;6.50;;;;;;;28.35;29.27;94292.60;823079;71;31670;-80
2021/08/23 16:31:46;;;;;;;7.70;7.00;;;;;;;;;;829484;71;32242;-83
2021/08/23 16:46:45;;;;;;;7.33;6.83;;;;;;;27.54;30.77;94300.52;827908;71;31792;-84
2021/08/23 17:01:20;;;;;;;7.50;6.90;;;;;;;27.07;30.74;94319.80;828546;71;28704;-80
2021/08/23 17:16:23;;;;;;;7.37;6.77;;;;;;;26.66;31.34;94309.70;827843;71;31720;-78
2021/08/23 17:31:19;;;;;;;8.70;8.00;;;;;;;26.27;31.70;94312.63;828437;71;31460;-77
2021/08/23 17:46:29;;;;;;;10.90;10.00;;;;;;;26.11;31.77;94319.81;831142;70;31797;-79
2021/08/23 18:16:16;;;;;;;16.97;15.47;;;;;;;25.72;32.13;94337.60;828653;71;32325;-75
2021/08/23 18:31:22;;;;;;;20.53;18.63;;;;;;;25.59;32.18;94356.07;834652;71;28782;-76
2021/08/23 18:46:27;;;;;;;15.97;14.57;;;;;;;25.50;32.70;94354.94;829703;71;31782;-78
2021/08/23 19:02:09;;;;;;;14.50;13.20;;;;;;;25.43;33.82;94376.45;792399;70;32122;-81
2021/08/23 19:16:22;;;;;;;11.57;10.47;;;;;;;25.17;34.88;94379.69;827436;71;31699;-76
2021/08/23 19:31:15;;;;;;;10.13;9.23;;;;;;;24.92;35.16;94382.35;834161;71;29385;-76
2021/08/23 19:46:19;;;;;;;7.47;6.87;;;;;;;24.90;34.88;94392.70;822871;71;32180;-74
2021/08/23 20:31:55;;;;;;;7.37;6.67;;;;;;;24.26;37.40;94414.18;823374;70;33408;-80
2021/08/23 21:16:21;;;;;;;7.23;6.00;;;;;;;23.26;39.42;94386.22;827632;71;32196;-77
2021/08/23 21:31:08;;;;;;;6.90;5.50;;;;;;;23.10;39.42;94386.47;828317;71;30568;-77
2021/08/23 22:01:20;;;;;;;5.90;5.50;;;;;;;22.78;41.47;94408.33;820215;71;29689;-76
2021/08/23 22:31:17;;;;;;;7.03;6.43;;;;;;;22.58;42.21;94433.73;834154;71;29695;-75
2021/08/23 22:46:25;;;;;;;6.08;5.58;;;;;;;22.47;43.71;94432.28;833995;71;32685;-78
2021/08/23 23:01:14;;;;;;;6.67;6.08;;;;;;;22.31;44.83;94437.83;834876;71;30298;-76
2021/08/23 23:16:10;;;;;;;6.42;5.80;;;;;;;22.15;46.82;94439.89;828440;71;30235;-76
2021/08/23 23:47:00;;;;;;;6.58;6.08;;;;;;;21.68;50.18;94453.19;827595;71;27119;-76
